createdAt,value
2023-03-26T00:01:46.628Z,6.80
2023-03-26T00:03:44.933Z,6.79
2023-03-26T00:05:40.193Z,6.82
2023-03-26T00:07:35.272Z,6.81
2023-03-26T00:09:31.296Z,6.82
2023-03-26T00:11:29.372Z,6.79
2023-03-26T00:13:24.787Z,6.81
2023-03-26T00:15:22.473Z,6.80
2023-03-26T00:17:18.019Z,6.83
2023-03-26T00:19:14.034Z,6.84
2023-03-26T00:21:10.603Z,6.83
2023-03-26T00:23:05.810Z,6.86
2023-03-26T00:25:01.534Z,6.84
2023-03-26T00:26:57.030Z,6.84
2023-03-26T00:28:52.609Z,6.86
2023-03-26T00:30:50.957Z,6.87
2023-03-26T00:32:53.393Z,6.85
2023-03-26T00:34:52.124Z,6.85
2023-03-26T00:36:47.450Z,6.87
2023-03-26T00:38:43.711Z,6.86
2023-03-26T00:40:38.774Z,6.88
2023-03-26T00:42:34.003Z,6.91
2023-03-26T00:44:29.354Z,6.89
2023-03-26T00:46:27.846Z,6.85
2023-03-26T00:48:34.479Z,6.84
2023-03-26T00:50:39.280Z,6.82
2023-03-26T00:52:36.294Z,6.80
2023-03-26T00:54:32.025Z,6.77
2023-03-26T00:56:27.961Z,6.77
2023-03-26T00:58:23.064Z,6.81
2023-03-26T01:00:21.115Z,6.82
2023-03-26T01:02:22.556Z,6.80
2023-03-26T01:04:28.364Z,6.82
2023-03-26T01:06:27.963Z,6.76
2023-03-26T01:08:30.749Z,6.72
2023-03-26T01:10:26.386Z,6.74
2023-03-26T01:12:24.403Z,6.72
2023-03-26T01:14:23.658Z,6.70
2023-03-26T01:16:25.598Z,6.73
2023-03-26T01:18:26.466Z,6.71
2023-03-26T01:20:26.933Z,6.73
2023-03-26T01:22:24.582Z,6.71
2023-03-26T01:24:22.620Z,6.68
2023-03-26T01:26:32.443Z,6.59
2023-03-26T01:28:32.137Z,6.59
2023-03-26T01:30:34.250Z,6.58
2023-03-26T01:32:40.623Z,6.51
2023-03-26T01:34:49.753Z,6.47
2023-03-26T01:36:56.072Z,6.38
2023-03-26T01:39:00.576Z,6.34
2023-03-26T01:41:04.921Z,6.29
2023-03-26T01:43:07.480Z,6.36
2023-03-26T01:45:08.421Z,6.31
2023-03-26T01:47:04.022Z,6.27
2023-03-26T01:48:59.395Z,6.19
2023-03-26T01:50:56.488Z,6.19
2023-03-26T01:52:52.206Z,6.17
2023-03-26T01:54:47.724Z,6.20
2023-03-26T01:56:57.110Z,6.18
2023-03-26T01:59:02.613Z,6.19
2023-03-26T02:01:05.872Z,6.02
2023-03-26T02:03:22.500Z,5.93
2023-03-26T02:05:23.624Z,5.87
2023-03-26T02:07:28.808Z,5.91
2023-03-26T02:09:30.652Z,5.91
2023-03-26T02:11:34.827Z,5.91
2023-03-26T02:13:34.665Z,5.85
2023-03-26T02:15:29.802Z,5.87
2023-03-26T02:17:25.325Z,5.85
2023-03-26T02:19:21.946Z,5.85
2023-03-26T02:21:21.516Z,5.86
2023-03-26T02:23:16.561Z,5.85
2023-03-26T02:25:13.666Z,5.81
2023-03-26T02:27:09.668Z,5.78
2023-03-26T02:29:07.667Z,5.73
2023-03-26T02:31:03.532Z,5.76
2023-03-26T02:33:01.901Z,5.75
2023-03-26T02:34:57.344Z,5.75
2023-03-26T02:36:52.790Z,5.74
2023-03-26T02:38:47.986Z,5.75
2023-03-26T02:40:44.081Z,5.73
2023-03-26T02:42:39.120Z,5.73
2023-03-26T02:44:38.915Z,5.73
2023-03-26T02:46:34.377Z,5.73
2023-03-26T02:48:29.692Z,5.72
2023-03-26T02:50:24.826Z,5.75
2023-03-26T02:52:20.624Z,5.73
2023-03-26T02:54:16.861Z,5.73
2023-03-26T02:56:12.723Z,5.75
2023-03-26T02:58:07.976Z,5.74
2023-03-26T03:00:14.366Z,5.75
2023-03-26T03:02:09.508Z,5.77
2023-03-26T03:04:08.597Z,5.77
2023-03-26T03:06:03.613Z,5.79
2023-03-26T03:07:59.639Z,5.79
2023-03-26T03:09:54.763Z,5.79
2023-03-26T03:11:50.341Z,5.80
2023-03-26T03:13:45.854Z,5.82
2023-03-26T03:15:44.306Z,5.85
2023-03-26T03:17:39.410Z,5.83
2023-03-26T03:19:35.130Z,5.85
2023-03-26T03:21:31.388Z,5.86
2023-03-26T03:23:26.755Z,5.86
2023-03-26T03:25:22.340Z,5.89
2023-03-26T03:27:19.584Z,5.88
2023-03-26T03:29:14.984Z,5.87
2023-03-26T03:31:13.082Z,5.86
2023-03-26T03:33:08.556Z,5.87
2023-03-26T03:35:03.936Z,5.86
2023-03-26T03:36:59.271Z,5.87
2023-03-26T03:38:54.653Z,5.85
2023-03-26T03:40:49.902Z,5.90
2023-03-26T03:42:45.537Z,5.93
2023-03-26T03:44:40.526Z,5.95
2023-03-26T03:46:38.575Z,5.95
2023-03-26T03:48:33.612Z,5.96
2023-03-26T03:50:29.141Z,5.94
2023-03-26T03:52:24.218Z,5.97
2023-03-26T03:54:19.566Z,5.99
2023-03-26T03:56:14.897Z,6.00
2023-03-26T03:58:10.288Z,5.96
2023-03-26T04:00:08.185Z,6.02
2023-03-26T04:02:06.711Z,6.02
2023-03-26T04:04:02.296Z,6.00
2023-03-26T04:05:58.379Z,6.00
2023-03-26T04:07:53.374Z,6.02
2023-03-26T04:09:48.850Z,6.03
2023-03-26T04:11:43.938Z,6.05
2023-03-26T04:13:39.639Z,6.02
2023-03-26T04:15:36.109Z,6.02
2023-03-26T04:17:34.304Z,6.00
2023-03-26T04:19:29.648Z,5.99
2023-03-26T04:21:26.455Z,6.00
2023-03-26T04:23:22.676Z,5.98
2023-03-26T04:25:18.304Z,5.97
2023-03-26T04:27:18.281Z,5.97
2023-03-26T04:29:18.334Z,5.96
2023-03-26T04:31:16.556Z,5.98
2023-03-26T04:33:17.155Z,5.93
2023-03-26T04:35:16.720Z,5.95
2023-03-26T04:37:17.071Z,5.95
2023-03-26T04:39:14.599Z,5.95
2023-03-26T04:41:11.500Z,5.95
2023-03-26T04:43:06.875Z,5.94
2023-03-26T04:45:03.216Z,5.95
2023-03-26T04:46:58.313Z,5.95
2023-03-26T04:48:57.654Z,5.94
2023-03-26T04:50:53.049Z,5.94
2023-03-26T04:52:48.643Z,5.96
2023-03-26T04:54:47.381Z,5.95
2023-03-26T04:56:48.628Z,5.95
2023-03-26T04:58:43.685Z,5.98
2023-03-26T05:00:39.088Z,5.96
2023-03-26T05:02:34.299Z,5.94
2023-03-26T05:04:34.165Z,5.91
2023-03-26T05:06:34.431Z,5.91
2023-03-26T05:08:30.674Z,5.91
2023-03-26T05:10:26.401Z,5.93
2023-03-26T05:12:22.022Z,5.91
2023-03-26T05:14:17.252Z,5.95
2023-03-26T05:16:13.507Z,5.93
2023-03-26T05:18:09.044Z,5.94
2023-03-26T05:20:09.047Z,5.94
2023-03-26T05:22:04.115Z,5.96
2023-03-26T05:23:59.577Z,5.97
2023-03-26T05:25:54.814Z,5.97
2023-03-26T05:27:50.703Z,5.96
2023-03-26T05:29:46.045Z,5.98
2023-03-26T05:31:41.452Z,5.99
2023-03-26T05:33:36.879Z,5.98
2023-03-26T05:35:34.998Z,6.02
2023-03-26T05:37:32.049Z,6.04
2023-03-26T05:39:27.764Z,6.07
2023-03-26T05:41:22.852Z,6.04
2023-03-26T05:43:18.240Z,6.07
2023-03-26T05:45:15.479Z,6.07
2023-03-26T05:47:10.995Z,6.08
2023-03-26T05:49:06.350Z,6.08
2023-03-26T05:51:04.388Z,6.11
2023-03-26T05:52:59.469Z,6.11
2023-03-26T05:54:55.019Z,6.09
2023-03-26T05:56:50.174Z,6.11
2023-03-26T05:58:45.915Z,6.14
2023-03-26T06:00:41.244Z,6.18
2023-03-26T06:02:36.654Z,6.17
2023-03-26T06:04:32.088Z,6.17
2023-03-26T06:06:33.097Z,6.21
2023-03-26T06:08:29.391Z,6.17
2023-03-26T06:10:25.034Z,6.21
2023-03-26T06:12:20.410Z,6.19
2023-03-26T06:14:16.078Z,6.20
2023-03-26T06:16:21.117Z,6.24
2023-03-26T06:18:23.175Z,6.25
2023-03-26T06:20:18.852Z,6.24
2023-03-26T06:22:17.113Z,6.21
2023-03-26T06:24:12.712Z,6.26
2023-03-26T06:26:08.699Z,6.30
2023-03-26T06:28:03.990Z,6.28
2023-03-26T06:29:59.671Z,6.28
2023-03-26T06:31:55.079Z,6.29
2023-03-26T06:33:51.469Z,6.33
2023-03-26T06:35:47.354Z,6.42
2023-03-26T06:37:45.519Z,6.48
2023-03-26T06:39:40.903Z,6.39
2023-03-26T06:41:37.034Z,6.40
2023-03-26T06:43:33.833Z,6.39
2023-03-26T06:45:29.641Z,6.35
2023-03-26T06:47:24.729Z,6.29
2023-03-26T06:49:20.972Z,6.30
2023-03-26T06:51:16.065Z,6.34
2023-03-26T06:53:14.542Z,6.30
2023-03-26T06:55:10.677Z,6.33
2023-03-26T06:57:06.149Z,6.39
2023-03-26T06:59:01.213Z,6.44
2023-03-26T07:00:57.145Z,6.45
2023-03-26T07:02:52.422Z,6.47
2023-03-26T07:04:47.794Z,6.53
2023-03-26T07:06:42.792Z,6.50
2023-03-26T07:08:40.984Z,6.42
2023-03-26T07:10:36.142Z,6.44
2023-03-26T07:12:31.586Z,6.39
2023-03-26T07:14:28.082Z,6.48
2023-03-26T07:16:23.823Z,6.55
2023-03-26T07:18:18.870Z,6.56
2023-03-26T07:20:15.535Z,6.56
2023-03-26T07:22:17.240Z,6.59
2023-03-26T07:24:17.077Z,6.69
2023-03-26T07:26:28.492Z,6.79
2023-03-26T07:28:36.815Z,6.76
2023-03-26T07:30:39.322Z,6.83
2023-03-26T07:32:44.916Z,6.91
2023-03-26T07:34:49.837Z,6.96
2023-03-26T07:36:55.063Z,7.01
2023-03-26T07:39:02.385Z,6.85
2023-03-26T07:41:08.673Z,6.89
2023-03-26T07:43:08.931Z,6.96
2023-03-26T07:45:11.403Z,6.98
2023-03-26T07:47:25.710Z,7.05
2023-03-26T07:49:22.058Z,7.03
2023-03-26T07:51:18.922Z,6.99
2023-03-26T07:53:15.040Z,7.06
2023-03-26T07:55:15.384Z,6.91
2023-03-26T07:57:23.010Z,6.89
2023-03-26T07:59:25.909Z,6.82
2023-03-26T08:01:29.948Z,6.85
2023-03-26T08:03:35.142Z,6.89
2023-03-26T08:05:34.389Z,6.90
2023-03-26T08:07:42.492Z,6.90
2023-03-26T08:09:46.067Z,6.91
2023-03-26T08:11:50.956Z,6.96
2023-03-26T08:14:00.196Z,6.98
2023-03-26T08:16:05.802Z,6.95
2023-03-26T08:18:07.886Z,6.87
2023-03-26T08:20:17.064Z,6.94
2023-03-26T08:22:18.010Z,6.98
2023-03-26T08:24:21.018Z,6.96
2023-03-26T08:26:24.072Z,6.85
2023-03-26T08:28:30.674Z,6.88
2023-03-26T08:30:31.156Z,6.91
2023-03-26T08:32:27.658Z,6.97
2023-03-26T08:34:22.775Z,6.93
2023-03-26T08:36:18.642Z,6.96
2023-03-26T08:38:15.517Z,6.88
2023-03-26T08:40:12.574Z,6.88
2023-03-26T08:42:39.226Z,6.91
2023-03-26T08:45:09.971Z,6.89
2023-03-26T08:47:34.732Z,6.91
2023-03-26T08:49:57.989Z,7.04
2023-03-26T08:52:24.815Z,6.96
2023-03-26T08:54:49.825Z,7.06
2023-03-26T08:56:55.122Z,7.18
2023-03-26T08:59:21.773Z,7.20
2023-03-26T09:01:45.569Z,7.20
2023-03-26T09:04:34.858Z,7.15
2023-03-26T09:07:06.839Z,7.27
2023-03-26T09:09:32.357Z,7.32
2023-03-26T09:11:53.841Z,7.31
2023-03-26T09:14:11.727Z,7.42
2023-03-26T09:16:25.941Z,7.45
2023-03-26T09:18:55.755Z,7.31
2023-03-26T09:21:25.670Z,7.34
2023-03-26T09:23:45.772Z,7.27
2023-03-26T09:26:28.115Z,7.34
2023-03-26T09:28:55.258Z,7.37
2023-03-26T09:31:25.092Z,7.37
2023-03-26T09:33:56.150Z,7.44
2023-03-26T09:35:57.266Z,7.45
2023-03-26T09:38:00.438Z,7.53
2023-03-26T09:40:17.623Z,7.52
2023-03-26T09:42:20.883Z,7.63
2023-03-26T09:44:40.800Z,7.59
2023-03-26T09:46:46.704Z,7.59
2023-03-26T09:49:25.469Z,7.60
2023-03-26T09:51:35.523Z,7.57
2023-03-26T09:53:50.691Z,7.68
2023-03-26T09:56:04.226Z,7.82
2023-03-26T09:58:12.620Z,7.86
2023-03-26T10:00:25.877Z,7.94
2023-03-26T10:02:47.611Z,8.03
2023-03-26T10:05:07.609Z,8.07
2023-03-26T10:07:09.852Z,7.89
2023-03-26T10:09:25.205Z,7.96
2023-03-26T10:11:34.800Z,7.98
2023-03-26T10:13:37.781Z,7.97
2023-03-26T10:15:43.695Z,8.10
2023-03-26T10:17:52.652Z,8.19
2023-03-26T10:20:09.303Z,8.24
2023-03-26T10:22:16.027Z,8.19
2023-03-26T10:24:21.231Z,8.30
2023-03-26T10:26:36.726Z,8.24
2023-03-26T10:28:56.908Z,8.17
2023-03-26T10:31:10.771Z,8.28
2023-03-26T10:33:17.271Z,8.28
2023-03-26T10:35:24.733Z,8.29
2023-03-26T10:37:28.008Z,8.25
2023-03-26T10:39:48.677Z,8.24
2023-03-26T10:41:57.687Z,8.33
2023-03-26T10:44:29.623Z,8.33
2023-03-26T10:46:44.392Z,8.21
2023-03-26T10:49:15.806Z,8.30
2023-03-26T10:51:36.489Z,8.29
2023-03-26T10:53:38.536Z,8.23
2023-03-26T10:55:40.314Z,8.39
2023-03-26T10:57:46.860Z,8.43
2023-03-26T10:59:42.266Z,8.57
2023-03-26T11:01:49.040Z,8.60
2023-03-26T11:03:52.982Z,8.58
2023-03-26T11:05:54.256Z,8.63
2023-03-26T11:07:58.434Z,8.61
2023-03-26T11:10:00.434Z,8.50
2023-03-26T11:12:00.719Z,8.43
2023-03-26T11:14:07.276Z,8.45
2023-03-26T11:16:08.102Z,8.63
2023-03-26T11:18:14.523Z,8.62
2023-03-26T11:20:16.384Z,8.54
2023-03-26T11:22:23.537Z,8.54
2023-03-26T11:24:44.068Z,8.52
2023-03-26T11:26:50.157Z,8.50
2023-03-26T11:29:32.261Z,8.49
2023-03-26T11:31:35.894Z,8.50
2023-03-26T11:33:37.892Z,8.42
2023-03-26T11:35:45.454Z,8.35
2023-03-26T11:37:46.486Z,8.54
2023-03-26T11:39:48.884Z,8.71
2023-03-26T11:41:44.044Z,8.70
2023-03-26T11:43:39.621Z,8.65
2023-03-26T11:45:40.916Z,8.68
2023-03-26T11:47:41.729Z,8.76
2023-03-26T11:49:37.177Z,8.89
2023-03-26T11:51:35.665Z,8.83
2023-03-26T11:53:34.738Z,8.92
2023-03-26T11:55:30.443Z,9.08
2023-03-26T11:57:33.369Z,9.15
2023-03-26T11:59:36.987Z,9.18
2023-03-26T12:01:53.142Z,9.33
2023-03-26T12:04:01.488Z,9.41
2023-03-26T12:06:02.915Z,9.59
2023-03-26T12:08:00.282Z,9.57
2023-03-26T12:09:56.916Z,9.76
2023-03-26T12:12:14.900Z,10.24
2023-03-26T12:14:11.071Z,10.27
2023-03-26T12:16:14.799Z,10.26
2023-03-26T12:18:27.882Z,10.16
2023-03-26T12:20:36.958Z,9.97
2023-03-26T12:22:36.322Z,9.98
2023-03-26T12:24:33.532Z,9.86
2023-03-26T12:26:37.628Z,10.01
2023-03-26T12:28:35.098Z,9.90
2023-03-26T12:30:33.928Z,10.04
2023-03-26T12:32:45.644Z,10.04
2023-03-26T12:34:45.038Z,10.38
2023-03-26T12:36:40.531Z,10.63
2023-03-26T12:38:38.290Z,10.95
2023-03-26T12:40:36.780Z,11.35
2023-03-26T12:44:49.933Z,11.21
2023-03-26T12:44:58.919Z,11.05
2023-03-26T12:47:56.447Z,11.07
2023-03-26T12:49:26.856Z,10.95
2023-03-26T12:51:34.512Z,10.94
2023-03-26T12:53:41.880Z,10.78
2023-03-26T12:55:45.114Z,10.73
2023-03-26T12:57:46.358Z,10.80
2023-03-26T12:59:52.737Z,10.73
2023-03-26T13:01:57.474Z,10.82
2023-03-26T13:04:15.418Z,10.74
2023-03-26T13:06:26.751Z,10.48
2023-03-26T13:08:42.311Z,10.45
2023-03-26T13:10:51.477Z,10.55
2023-03-26T13:13:01.938Z,10.43
2023-03-26T13:15:10.426Z,10.59
2023-03-26T13:17:15.206Z,10.67
2023-03-26T13:19:15.262Z,10.84
2023-03-26T13:21:15.538Z,10.71
2023-03-26T13:23:20.887Z,10.66
2023-03-26T13:25:33.750Z,10.50
2023-03-26T13:27:44.626Z,10.42
2023-03-26T13:29:48.034Z,10.15
2023-03-26T13:31:51.447Z,10.10
2023-03-26T13:33:57.860Z,10.16
2023-03-26T13:36:19.051Z,10.28
2023-03-26T13:38:23.955Z,10.29
2023-03-26T13:40:31.893Z,10.26
2023-03-26T13:42:40.346Z,10.36
2023-03-26T13:44:46.168Z,10.66
2023-03-26T13:46:45.495Z,10.85
2023-03-26T13:48:50.311Z,10.73
2023-03-26T13:50:52.782Z,10.73
2023-03-26T13:52:53.182Z,10.90
2023-03-26T13:54:52.597Z,11.40
2023-03-26T13:56:55.989Z,11.81
2023-03-26T13:58:57.073Z,12.12
2023-03-26T14:00:57.405Z,12.29
2023-03-26T14:02:59.869Z,12.31
2023-03-26T14:04:59.546Z,12.01
2023-03-26T14:07:01.602Z,11.95
2023-03-26T14:09:02.759Z,12.24
2023-03-26T14:11:06.466Z,12.62
2023-03-26T14:13:09.935Z,12.64
2023-03-26T14:15:07.595Z,12.11
2023-03-26T14:17:09.545Z,12.28
2023-03-26T14:19:24.929Z,12.39
2023-03-26T14:21:43.304Z,12.06
2023-03-26T14:23:57.204Z,12.21
2023-03-26T14:26:04.644Z,12.56
2023-03-26T14:28:26.689Z,12.57
2023-03-26T14:30:54.612Z,12.29
2023-03-26T14:33:04.239Z,12.24
2023-03-26T14:35:21.679Z,12.46
2023-03-26T14:37:42.454Z,13.11
2023-03-26T14:40:05.852Z,13.73
2023-03-26T14:42:05.417Z,14.02
2023-03-26T14:44:27.644Z,14.30
2023-03-26T14:46:38.118Z,14.33
2023-03-26T14:49:01.956Z,14.35
2023-03-26T14:51:07.447Z,14.61
2023-03-26T14:53:06.216Z,14.40
2023-03-26T14:55:07.655Z,14.07
2023-03-26T14:57:29.158Z,13.57
2023-03-26T14:59:54.656Z,13.51
2023-03-26T15:02:21.009Z,13.18
2023-03-26T15:04:49.201Z,13.03
2023-03-26T15:07:26.530Z,13.20
2023-03-26T15:09:54.030Z,13.30
2023-03-26T15:11:56.307Z,13.33
2023-03-26T15:14:46.570Z,13.13
2023-03-26T15:17:12.728Z,13.26
2023-03-26T15:19:44.249Z,13.14
2023-03-26T15:22:18.730Z,13.07
2023-03-26T15:24:35.364Z,13.03
2023-03-26T15:27:01.788Z,13.07
2023-03-26T15:29:34.196Z,13.21
2023-03-26T15:31:59.217Z,13.31
2023-03-26T15:34:31.741Z,12.99
2023-03-26T15:36:58.952Z,12.91
2023-03-26T15:39:32.924Z,13.13
2023-03-26T15:41:34.739Z,13.15
2023-03-26T15:44:24.138Z,13.08
2023-03-26T15:46:36.078Z,13.03
2023-03-26T15:48:52.289Z,12.96
2023-03-26T15:50:56.962Z,12.68
2023-03-26T15:53:05.460Z,12.48
2023-03-26T15:55:06.701Z,12.55
2023-03-26T15:57:19.977Z,12.55
2023-03-26T15:59:28.384Z,12.53
2023-03-26T16:01:40.801Z,12.62
2023-03-26T16:03:44.382Z,12.64
2023-03-26T16:06:10.533Z,12.56
2023-03-26T16:08:14.957Z,12.44
2023-03-26T16:10:26.422Z,12.45
2023-03-26T16:12:32.722Z,12.43
2023-03-26T16:14:45.769Z,12.35
2023-03-26T16:16:59.331Z,12.37
2023-03-26T16:19:01.181Z,12.22
2023-03-26T16:20:58.833Z,12.09
2023-03-26T16:23:04.556Z,12.06
2023-03-26T16:25:28.688Z,12.06
2023-03-26T16:27:37.022Z,12.04
2023-03-26T16:29:34.541Z,12.10
2023-03-26T16:31:37.805Z,12.08
2023-03-26T16:33:40.511Z,12.04
2023-03-26T16:35:43.714Z,11.98
2023-03-26T16:37:43.964Z,11.76
2023-03-26T16:39:46.462Z,11.79
2023-03-26T16:42:06.028Z,11.74
2023-03-26T16:44:10.823Z,11.82
2023-03-26T16:46:11.838Z,11.84
2023-03-26T16:48:18.557Z,11.84
2023-03-26T16:50:31.210Z,11.74
2023-03-26T16:52:46.389Z,11.74
2023-03-26T16:54:51.435Z,11.70
2023-03-26T16:56:53.529Z,11.75
2023-03-26T16:58:59.350Z,11.70
2023-03-26T17:01:07.738Z,11.61
2023-03-26T17:03:32.006Z,11.53
2023-03-26T17:05:37.984Z,11.56
2023-03-26T17:07:39.984Z,11.48
2023-03-26T17:09:46.688Z,11.41
2023-03-26T17:11:58.080Z,11.35
2023-03-26T17:14:03.857Z,11.53
2023-03-26T17:16:13.068Z,11.48
2023-03-26T17:18:27.510Z,11.26
2023-03-26T17:20:33.466Z,11.17
2023-03-26T17:22:40.361Z,11.00
2023-03-26T17:24:42.909Z,10.99
2023-03-26T17:26:53.272Z,11.01
2023-03-26T17:29:03.841Z,10.94
2023-03-26T17:31:09.099Z,10.85
2023-03-26T17:33:16.472Z,10.90
2023-03-26T17:35:13.944Z,10.92
2023-03-26T17:37:13.434Z,10.81
2023-03-26T17:39:24.864Z,10.74
2023-03-26T17:41:50.132Z,10.68
2023-03-26T17:43:50.219Z,10.63
2023-03-26T17:46:02.827Z,10.72
2023-03-26T17:48:02.558Z,10.72
2023-03-26T17:50:03.068Z,10.75
2023-03-26T17:54:55.946Z,10.80
2023-03-26T17:56:53.156Z,10.78
2023-03-26T17:58:58.890Z,10.79
2023-03-26T18:01:17.292Z,10.71
2023-03-26T18:03:21.381Z,10.64
2023-03-26T18:05:19.148Z,10.57
2023-03-26T18:07:44.185Z,10.64
2023-03-26T18:09:54.623Z,10.65
2023-03-26T18:12:17.051Z,10.55
2023-03-26T18:14:31.272Z,10.38
2023-03-26T18:16:31.454Z,10.44
2023-03-26T18:18:34.978Z,10.36
2023-03-26T18:20:32.760Z,10.31
2023-03-26T18:22:31.435Z,10.29
2023-03-26T18:24:31.504Z,10.37
2023-03-26T18:26:36.261Z,10.46
2023-03-26T18:28:33.671Z,10.46
2023-03-26T18:30:31.934Z,10.42
2023-03-26T18:32:31.127Z,10.46
2023-03-26T18:34:29.269Z,10.52
2023-03-26T18:36:27.934Z,10.41
2023-03-26T18:38:37.130Z,10.33
2023-03-26T18:40:42.484Z,10.38
2023-03-26T18:42:37.601Z,10.43
2023-03-26T18:44:38.407Z,10.44
2023-03-26T18:46:36.960Z,10.38
2023-03-26T18:48:32.749Z,10.32
2023-03-26T18:50:31.280Z,10.31
2023-03-26T18:52:26.916Z,10.32
2023-03-26T18:54:23.907Z,10.34
2023-03-26T18:56:30.545Z,10.32
2023-03-26T18:58:30.206Z,10.34
2023-03-26T19:00:28.720Z,10.38
2023-03-26T19:02:28.458Z,10.32
2023-03-26T19:04:25.296Z,10.29
2023-03-26T19:06:21.186Z,10.32
2023-03-26T19:08:19.291Z,10.30
2023-03-26T19:10:21.511Z,10.25
2023-03-26T19:12:22.940Z,10.19
2023-03-26T19:14:21.159Z,10.15
2023-03-26T19:16:23.803Z,10.17
2023-03-26T19:18:25.362Z,10.18
2023-03-26T19:20:24.735Z,10.10
2023-03-26T19:22:21.245Z,9.98
2023-03-26T19:24:17.631Z,9.97
2023-03-26T19:26:14.415Z,9.99
2023-03-26T19:28:18.587Z,9.98
2023-03-26T19:30:28.446Z,9.97
2023-03-26T19:32:32.650Z,9.92
2023-03-26T19:34:35.536Z,9.92
2023-03-26T19:36:32.541Z,9.94
2023-03-26T19:38:29.454Z,9.86
2023-03-26T19:40:30.008Z,9.83
2023-03-26T19:42:43.131Z,9.76
2023-03-26T19:44:42.447Z,9.78
2023-03-26T19:46:53.448Z,9.76
2023-03-26T19:48:52.010Z,9.70
2023-03-26T19:51:02.795Z,9.69
2023-03-26T19:53:19.092Z,9.69
2023-03-26T19:55:22.594Z,9.70
2023-03-26T19:57:17.690Z,9.64
2023-03-26T19:59:14.296Z,9.62
2023-03-26T20:01:13.619Z,9.57
2023-03-26T20:03:09.130Z,9.55
2023-03-26T20:05:04.653Z,9.59
2023-03-26T20:07:02.646Z,9.59
2023-03-26T20:08:57.999Z,9.57
2023-03-26T20:10:53.497Z,9.53
2023-03-26T20:12:48.794Z,9.54
2023-03-26T20:14:45.932Z,9.50
2023-03-26T20:16:42.906Z,9.45
2023-03-26T20:18:40.031Z,9.46
2023-03-26T20:20:36.589Z,9.45
2023-03-26T20:22:34.775Z,9.43
2023-03-26T20:24:36.068Z,9.40
2023-03-26T20:26:31.505Z,9.29
2023-03-26T20:28:26.737Z,9.25
2023-03-26T20:30:36.936Z,9.20
2023-03-26T20:32:32.700Z,9.16
2023-03-26T20:34:28.090Z,9.10
2023-03-26T20:36:33.420Z,9.07
2023-03-26T20:38:38.936Z,9.04
2023-03-26T20:40:35.866Z,8.94
2023-03-26T20:42:31.009Z,8.91
2023-03-26T20:44:28.240Z,8.79
2023-03-26T20:46:30.791Z,8.73
2023-03-26T20:48:27.107Z,8.76
2023-03-26T20:50:24.803Z,8.75
2023-03-26T20:52:20.243Z,8.73
2023-03-26T20:54:21.471Z,8.62
2023-03-26T20:56:19.064Z,8.57
2023-03-26T20:58:18.249Z,8.49
2023-03-26T21:00:27.017Z,8.45
2023-03-26T21:02:23.691Z,8.41
2023-03-26T21:04:20.891Z,8.42
2023-03-26T21:06:16.689Z,8.48
2023-03-26T21:08:18.278Z,8.46
2023-03-26T21:10:19.471Z,8.41
2023-03-26T21:12:24.846Z,8.40
2023-03-26T21:14:24.329Z,8.47
2023-03-26T21:16:21.005Z,8.46
2023-03-26T21:18:17.135Z,8.48
2023-03-26T21:20:16.840Z,8.48
2023-03-26T21:22:22.726Z,8.47
2023-03-26T21:24:29.764Z,8.42
2023-03-26T21:26:33.463Z,8.38
2023-03-26T21:28:42.014Z,8.29
2023-03-26T21:30:38.391Z,8.24
2023-03-26T21:32:35.521Z,8.23
2023-03-26T21:34:33.437Z,8.21
2023-03-26T21:36:29.897Z,8.23
2023-03-26T21:38:26.214Z,8.23
2023-03-26T21:40:22.667Z,8.19
2023-03-26T21:42:21.151Z,8.19
2023-03-26T21:44:18.468Z,8.18
2023-03-26T21:46:15.436Z,8.13
2023-03-26T21:48:12.227Z,8.05
2023-03-26T21:50:10.024Z,8.13
2023-03-26T21:52:06.253Z,8.17
2023-03-26T21:54:02.253Z,8.15
2023-03-26T21:56:03.228Z,8.11
2023-03-26T21:58:14.894Z,8.07
2023-03-26T22:00:15.378Z,8.07
2023-03-26T22:02:19.121Z,8.04
2023-03-26T22:04:21.226Z,8.02
2023-03-26T22:06:19.864Z,8.04
2023-03-26T22:08:24.396Z,8.00
2023-03-26T22:10:19.734Z,7.95
2023-03-26T22:12:16.885Z,7.90
2023-03-26T22:14:15.100Z,7.88
2023-03-26T22:16:12.437Z,7.84
2023-03-26T22:18:08.223Z,7.80
2023-03-26T22:20:07.709Z,7.76
2023-03-26T22:22:03.785Z,7.73
2023-03-26T22:23:59.213Z,7.72
2023-03-26T22:25:54.723Z,7.67
2023-03-26T22:27:51.752Z,7.64
2023-03-26T22:29:49.656Z,7.63
2023-03-26T22:31:45.495Z,7.61
2023-03-26T22:33:41.578Z,7.59
2023-03-26T22:35:37.505Z,7.61
2023-03-26T22:37:32.804Z,7.58
2023-03-26T22:39:28.906Z,7.56
2023-03-26T22:41:24.641Z,7.49
2023-03-26T22:43:20.296Z,7.49
2023-03-26T22:45:18.039Z,7.48
2023-03-26T22:47:13.755Z,7.42
2023-03-26T22:49:09.176Z,7.38
2023-03-26T22:51:06.462Z,7.35
2023-03-26T22:53:01.745Z,7.28
2023-03-26T22:54:57.207Z,7.23
2023-03-26T22:56:52.474Z,7.25
2023-03-26T22:58:48.182Z,7.25
2023-03-26T23:00:46.407Z,7.25
2023-03-26T23:02:41.984Z,7.23
2023-03-26T23:04:37.732Z,7.24
2023-03-26T23:06:33.506Z,7.22
2023-03-26T23:08:28.742Z,7.17
2023-03-26T23:10:24.609Z,7.10
2023-03-26T23:12:19.617Z,7.09
2023-03-26T23:14:15.282Z,7.09
2023-03-26T23:16:14.378Z,7.10
2023-03-26T23:18:11.358Z,7.08
2023-03-26T23:20:15.130Z,7.06
2023-03-26T23:22:14.303Z,6.99
2023-03-26T23:24:10.157Z,6.97
2023-03-26T23:26:07.432Z,6.97
2023-03-26T23:28:03.659Z,6.98
2023-03-26T23:29:59.516Z,6.97
2023-03-26T23:31:57.609Z,6.95
2023-03-26T23:33:53.356Z,6.91
2023-03-26T23:35:50.069Z,6.86
2023-03-26T23:37:45.596Z,6.85
2023-03-26T23:39:40.639Z,6.85
2023-03-26T23:41:36.871Z,6.82
2023-03-26T23:43:31.975Z,6.80
2023-03-26T23:45:27.412Z,6.75
2023-03-26T23:47:25.380Z,6.77
2023-03-26T23:49:20.919Z,6.78
2023-03-26T23:51:16.765Z,6.73
2023-03-26T23:53:12.150Z,6.69
2023-03-26T23:55:08.641Z,6.69
2023-03-26T23:57:04.066Z,6.66
2023-03-26T23:58:59.427Z,6.66
